Time;durP1;ratioP1;P1;durP2;ratioP2;P2;SDS_P1;SDS_P2;PMS_P1;PMS_P2;Temp;Humidity;BMP_temperature;BMP_pressure;BME280_temperature;BME280_humidity;BME280_pressure;Samples;Min_cycle;Max_cycle;Signal;HPM_P1;HPM_P2
2021/01/23 00:10:49;;;;;;;7.50;5.25;;;3.10;76.30;;;;;;4843469;29;20037;-94
2021/01/23 00:13:17;;;;;;;8.73;5.43;;;3.20;76.30;;;;;;4839444;29;20039;-94
2021/01/23 00:16:28;;;;;;;8.20;5.68;;;3.20;76.40;;;;;;4899520;29;20080;-94
2021/01/23 00:19:34;;;;;;;9.35;6.30;;;3.10;76.50;;;;;;4882859;29;20097;-94
2021/01/23 00:22:58;;;;;;;10.05;5.97;;;3.20;76.60;;;;;;4865741;29;20495;-93
2021/01/23 00:25:23;;;;;;;8.93;6.15;;;3.20;76.40;;;;;;4885983;29;20048;-95
2021/01/23 00:27:48;;;;;;;8.95;6.30;;;3.20;76.40;;;;;;4884161;29;20132;-94
2021/01/23 00:30:14;;;;;;;8.82;5.95;;;3.20;76.40;;;;;;4868207;29;20036;-94
2021/01/23 00:32:40;;;;;;;9.27;6.35;;;3.20;76.40;;;;;;4883547;29;20037;-94
2021/01/23 00:35:49;;;;;;;10.90;6.40;;;3.20;76.40;;;;;;4868238;29;20033;-94
2021/01/23 00:45:12;;;;;;;10.18;6.38;;;3.20;76.40;;;;;;4887622;29;20116;-95
2021/01/23 00:55:22;;;;;;;9.50;5.85;;;3.20;76.50;;;;;;4860547;29;20024;-94
2021/01/23 00:57:48;;;;;;;10.07;5.85;;;3.10;76.50;;;;;;4842493;29;20102;-94
2021/01/23 01:00:14;;;;;;;10.02;5.82;;;3.10;76.50;;;;;;4835108;29;20077;-94
2021/01/23 01:03:18;;;;;;;8.93;5.78;;;3.20;76.60;;;;;;4861089;29;20060;-94
2021/01/23 01:06:02;;;;;;;7.93;5.68;;;3.20;76.60;;;;;;4860941;29;20485;-94
2021/01/23 01:08:27;;;;;;;9.48;6.28;;;3.10;76.60;;;;;;4863880;29;20048;-94
2021/01/23 01:17:41;;;;;;;9.43;5.43;;;3.20;76.70;;;;;;4844358;29;20191;-94
2021/01/23 01:20:15;;;;;;;9.35;5.85;;;3.20;76.60;;;;;;4864319;29;20124;-94
2021/01/23 01:22:46;;;;;;;8.57;5.80;;;3.10;76.70;;;;;;4849477;29;20483;-93
2021/01/23 01:25:17;;;;;;;8.32;5.53;;;3.10;76.70;;;;;;4849270;29;20041;-94
2021/01/23 01:27:50;;;;;;;8.13;5.90;;;3.10;76.70;;;;;;4848261;29;20041;-92
2021/01/23 01:30:20;;;;;;;8.60;5.72;;;3.10;76.70;;;;;;4846376;29;20368;-91
2021/01/23 01:33:28;;;;;;;9.15;5.72;;;3.20;76.80;;;;;;4862022;29;20037;-92
2021/01/23 01:38:56;;;;;;;8.25;5.53;;;3.10;76.70;;;;;;4867883;29;20391;-92
2021/01/23 01:41:25;;;;;;;7.95;5.18;;;3.10;76.70;;;;;;4846194;29;20037;-91
2021/01/23 02:01:09;;;;;;;8.52;5.57;;;3.10;76.80;;;;;;4905095;29;20143;-95
2021/01/23 02:03:55;;;;;;;8.90;5.90;;;3.10;76.90;;;;;;4870932;29;20048;-95
2021/01/23 02:07:03;;;;;;;9.32;6.10;;;3.10;77.00;;;;;;4886448;29;20040;-95
2021/01/23 02:10:10;;;;;;;11.65;7.47;;;3.10;77.10;;;;;;4885890;29;20043;-94
2021/01/23 02:12:44;;;;;;;7.82;5.95;;;3.10;77.30;;;;;;4883925;29;20033;-95
2021/01/23 02:15:18;;;;;;;13.80;6.90;;;3.10;77.20;;;;;;4886263;29;20060;-95
2021/01/23 02:18:03;;;;;;;9.48;6.43;;;3.10;77.30;;;;;;4886063;29;20033;-94
2021/01/23 02:20:47;;;;;;;9.40;6.18;;;3.10;77.40;;;;;;4886001;29;20028;-95
2021/01/23 02:23:28;;;;;;;10.65;6.47;;;3.10;77.30;;;;;;4880660;29;20040;-94
2021/01/23 02:26:15;;;;;;;10.82;6.60;;;3.10;77.30;;;;;;4886710;29;20432;-95
2021/01/23 02:29:08;;;;;;;11.30;7.35;;;3.10;77.30;;;;;;4886173;29;20032;-95
2021/01/23 02:31:51;;;;;;;8.85;6.13;;;3.10;77.50;;;;;;4886182;29;20028;-94
2021/01/23 02:34:22;;;;;;;8.15;5.78;;;3.10;77.60;;;;;;4886148;29;20123;-95
2021/01/23 02:36:49;;;;;;;8.65;6.35;;;3.10;77.60;;;;;;4885904;29;20044;-95
2021/01/23 02:39:16;;;;;;;10.00;6.70;;;3.20;77.80;;;;;;4870328;29;20088;-94
2021/01/23 02:41:46;;;;;;;9.25;6.32;;;3.20;78.00;;;;;;4854782;29;20040;-94
2021/01/23 02:44:15;;;;;;;10.57;7.07;;;3.20;77.90;;;;;;4885208;29;20061;-93
2021/01/23 02:46:41;;;;;;;10.43;6.75;;;3.20;78.00;;;;;;4885167;29;20068;-94
2021/01/23 02:49:16;;;;;;;11.07;6.55;;;3.20;78.20;;;;;;4885156;29;20573;-93
2021/01/23 02:51:51;;;;;;;11.25;7.30;;;3.20;78.30;;;;;;4854431;29;20051;-94
2021/01/23 02:54:51;;;;;;;10.68;6.53;;;3.20;78.60;;;;;;4884570;29;20076;-94
2021/01/23 02:57:22;;;;;;;8.95;6.28;;;3.20;78.60;;;;;;4871687;29;20139;-94
2021/01/23 03:00:15;;;;;;;9.00;6.25;;;3.30;78.70;;;;;;4868878;29;20057;-94
2021/01/23 03:02:56;;;;;;;9.93;6.90;;;3.20;78.70;;;;;;4856324;29;20083;-95
2021/01/23 03:05:39;;;;;;;11.90;7.18;;;3.30;78.90;;;;;;4884188;29;20482;-94
2021/01/23 03:08:19;;;;;;;11.27;7.53;;;3.30;79.10;;;;;;4884212;29;20045;-94
2021/01/23 03:10:48;;;;;;;11.35;7.05;;;3.30;79.40;;;;;;4857903;29;20040;-94
2021/01/23 03:13:15;;;;;;;9.18;6.55;;;3.30;79.50;;;;;;4868530;29;20064;-94
2021/01/23 03:15:50;;;;;;;10.55;7.65;;;3.30;79.40;;;;;;4868290;29;20475;-93
2021/01/23 03:18:17;;;;;;;11.15;7.30;;;3.30;79.60;;;;;;4882788;29;20044;-93
2021/01/23 03:20:58;;;;;;;11.95;7.43;;;3.30;79.60;;;;;;4867400;29;20387;-93
2021/01/23 03:23:24;;;;;;;10.90;7.15;;;3.30;80.00;;;;;;4853337;29;20088;-95
2021/01/23 03:25:50;;;;;;;10.38;7.47;;;3.40;80.00;;;;;;4867518;29;20052;-93
2021/01/23 03:28:16;;;;;;;12.52;7.45;;;3.40;80.00;;;;;;4882828;29;20032;-93
2021/01/23 03:30:59;;;;;;;12.30;8.07;;;3.40;79.80;;;;;;4867421;29;20051;-92
2021/01/23 03:33:25;;;;;;;13.05;7.75;;;3.40;80.00;;;;;;4852605;29;20060;-94
2021/01/23 03:35:51;;;;;;;12.30;7.65;;;3.50;80.10;;;;;;4869102;29;20040;-93
2021/01/23 03:38:18;;;;;;;13.57;8.30;;;3.50;80.20;;;;;;4869134;29;20491;-94
2021/01/23 03:40:47;;;;;;;12.48;6.72;;;3.50;80.50;;;;;;4868700;29;20082;-94
2021/01/23 03:43:13;;;;;;;11.18;7.25;;;3.50;80.40;;;;;;4853898;29;20040;-94
2021/01/23 03:45:41;;;;;;;12.88;8.23;;;3.60;80.40;;;;;;4884158;29;20029;-94
2021/01/23 03:48:13;;;;;;;13.90;8.17;;;3.50;80.50;;;;;;4869080;29;20036;-94
2021/01/23 03:50:38;;;;;;;12.00;8.23;;;3.60;80.40;;;;;;4868842;29;20040;-94
2021/01/23 03:53:04;;;;;;;10.75;7.13;;;3.60;80.30;;;;;;4884515;29;20039;-94
2021/01/23 03:55:33;;;;;;;11.82;8.85;;;3.60;80.30;;;;;;4896275;23;20060;-94
2021/01/23 03:58:04;;;;;;;10.60;6.95;;;3.60;80.40;;;;;;4918322;29;20040;-94
2021/01/23 04:00:30;;;;;;;12.18;8.43;;;3.70;80.40;;;;;;4902422;29;20067;-94
2021/01/23 04:03:01;;;;;;;11.65;7.75;;;3.70;80.30;;;;;;4902471;29;20040;-94
2021/01/23 04:05:26;;;;;;;11.18;8.07;;;3.70;80.30;;;;;;4902880;29;20036;-92
2021/01/23 04:07:52;;;;;;;11.20;6.93;;;3.70;80.10;;;;;;4918371;29;20072;-94
2021/01/23 04:10:18;;;;;;;11.18;7.13;;;3.70;80.10;;;;;;4902593;29;20123;-94
2021/01/23 04:12:43;;;;;;;11.57;7.63;;;3.80;80.00;;;;;;4902214;29;20036;-94
2021/01/23 04:15:11;;;;;;;11.18;7.15;;;3.80;80.00;;;;;;4886638;29;20075;-94
2021/01/23 04:17:37;;;;;;;10.50;7.30;;;3.80;80.00;;;;;;4870934;29;20043;-93
2021/01/23 04:20:03;;;;;;;12.43;8.00;;;3.80;79.90;;;;;;4886605;29;20041;-94
2021/01/23 04:22:29;;;;;;;13.43;7.78;;;3.80;79.90;;;;;;4886395;29;20163;-93
2021/01/23 04:24:55;;;;;;;9.57;6.30;;;3.80;80.10;;;;;;4886260;29;20075;-93
2021/01/23 04:27:20;;;;;;;8.82;6.50;;;3.80;79.90;;;;;;4917567;29;20068;-94
2021/01/23 04:29:46;;;;;;;10.20;7.25;;;3.90;79.70;;;;;;4901609;29;20036;-94
2021/01/23 04:32:12;;;;;;;9.75;6.78;;;3.90;79.60;;;;;;4901679;29;20044;-93
2021/01/23 04:34:38;;;;;;;9.38;6.40;;;3.90;79.70;;;;;;4901554;29;20438;-93
2021/01/23 04:37:03;;;;;;;9.15;6.60;;;3.90;79.70;;;;;;4901477;29;20037;-93
2021/01/23 04:39:29;;;;;;;10.50;7.30;;;4.00;79.70;;;;;;4917327;29;20176;-94
2021/01/23 04:41:55;;;;;;;11.77;7.18;;;3.90;79.70;;;;;;4870477;29;20071;-95
2021/01/23 04:44:20;;;;;;;10.00;6.50;;;4.00;80.00;;;;;;4901105;29;20039;-93
2021/01/23 04:46:46;;;;;;;9.18;6.30;;;3.90;79.90;;;;;;4885819;29;20176;-93
2021/01/23 04:49:12;;;;;;;8.65;6.30;;;4.00;79.90;;;;;;4901292;29;20478;-94
2021/01/23 04:51:38;;;;;;;10.63;7.07;;;4.00;79.90;;;;;;4885367;29;20087;-94
2021/01/23 04:54:05;;;;;;;9.25;6.13;;;4.00;79.80;;;;;;4900811;29;20075;-93
2021/01/23 04:56:31;;;;;;;8.55;5.78;;;4.00;79.90;;;;;;4884850;29;20063;-93
2021/01/23 04:58:56;;;;;;;9.05;5.97;;;4.00;79.90;;;;;;4916673;29;20032;-93
2021/01/23 05:01:22;;;;;;;8.50;5.85;;;4.00;79.80;;;;;;4900884;29;20565;-93
2021/01/23 05:04:01;;;;;;;11.13;6.20;;;4.00;79.70;;;;;;4901183;29;20063;-94
2021/01/23 05:06:31;;;;;;;9.45;6.22;;;4.00;79.70;;;;;;4900926;29;20040;-93
2021/01/23 05:08:57;;;;;;;9.95;6.68;;;4.00;79.70;;;;;;4901042;29;20047;-96
2021/01/23 05:11:49;;;;;;;13.20;7.22;;;4.00;79.90;;;;;;4900864;29;20032;-92
2021/01/23 05:14:15;;;;;;;9.40;6.15;;;4.00;80.10;;;;;;4900617;29;20032;-93
2021/01/23 05:16:42;;;;;;;9.48;6.78;;;4.10;80.00;;;;;;4900033;29;20501;-93
2021/01/23 05:19:08;;;;;;;11.60;7.43;;;4.10;80.00;;;;;;4884747;29;20050;-94
2021/01/23 05:21:37;;;;;;;9.18;5.95;;;4.10;80.00;;;;;;4884514;29;20036;-93
2021/01/23 05:24:11;;;;;;;11.32;7.13;;;4.00;79.90;;;;;;4899959;29;20075;-93
2021/01/23 05:26:38;;;;;;;10.75;6.78;;;4.10;79.90;;;;;;4884598;29;20480;-93
2021/01/23 05:29:15;;;;;;;9.52;6.68;;;4.10;80.00;;;;;;4900972;29;20036;-93
2021/01/23 05:31:42;;;;;;;11.35;7.25;;;4.10;80.00;;;;;;4901133;29;20127;-92
2021/01/23 05:34:27;;;;;;;12.88;8.10;;;4.10;80.10;;;;;;4901152;29;20107;-93
2021/01/23 05:36:54;;;;;;;12.75;8.10;;;4.10;80.40;;;;;;4900868;29;20127;-92
2021/01/23 05:39:19;;;;;;;16.25;9.15;;;4.10;80.40;;;;;;4900755;29;20119;-94
2021/01/23 05:42:05;;;;;;;10.50;8.00;;;4.10;80.70;;;;;;4884805;29;20059;-92
2021/01/23 05:44:31;;;;;;;15.40;9.07;;;4.20;80.90;;;;;;4884170;29;20036;-93
2021/01/23 05:46:57;;;;;;;14.73;9.02;;;4.20;81.20;;;;;;4900609;29;20036;-93
2021/01/23 05:49:23;;;;;;;15.45;10.43;;;4.20;81.60;;;;;;4900710;29;20036;-93
2021/01/23 05:51:49;;;;;;;16.60;9.48;;;4.20;81.70;;;;;;4884629;29;20044;-92
2021/01/23 05:54:15;;;;;;;15.05;9.38;;;4.20;81.90;;;;;;4884693;29;20072;-93
2021/01/23 05:56:41;;;;;;;13.15;8.77;;;4.30;81.90;;;;;;4885194;29;20074;-92
2021/01/23 05:59:07;;;;;;;15.85;10.05;;;4.30;81.90;;;;;;4885180;29;20046;-92
2021/01/23 06:01:34;;;;;;;14.20;9.77;;;4.30;82.10;;;;;;4881324;29;20040;-93
2021/01/23 06:04:01;;;;;;;12.57;8.43;;;4.30;82.00;;;;;;4866897;29;20068;-94
2021/01/23 06:06:46;;;;;;;14.43;9.10;;;4.30;81.90;;;;;;4866843;29;20037;-92
2021/01/23 06:09:34;;;;;;;11.15;8.05;;;4.40;81.90;;;;;;4882395;29;20092;-93
2021/01/23 06:12:00;;;;;;;13.50;9.63;;;4.30;81.50;;;;;;4882130;29;20037;-92
2021/01/23 06:14:39;;;;;;;13.57;8.45;;;4.40;81.50;;;;;;4898029;29;20033;-92
2021/01/23 06:17:06;;;;;;;14.60;9.02;;;4.40;81.60;;;;;;4882316;29;20555;-92
2021/01/23 06:19:34;;;;;;;12.90;8.75;;;4.40;81.60;;;;;;4866839;29;20083;-92
2021/01/23 06:22:00;;;;;;;13.63;8.30;;;4.40;81.50;;;;;;4882402;29;20039;-93
2021/01/23 06:24:50;;;;;;;13.40;8.75;;;4.40;81.40;;;;;;4863714;29;20045;-93
2021/01/23 06:27:15;;;;;;;14.23;8.85;;;4.40;81.40;;;;;;4872280;29;20037;-92
2021/01/23 06:29:43;;;;;;;13.48;8.77;;;4.40;81.50;;;;;;4866534;29;20041;-92
2021/01/23 06:32:15;;;;;;;11.85;8.00;;;4.40;81.40;;;;;;4881825;29;20041;-94
2021/01/23 06:34:52;;;;;;;12.13;8.07;;;4.40;81.40;;;;;;4881878;29;20056;-92
2021/01/23 06:37:24;;;;;;;11.00;8.18;;;4.40;81.40;;;;;;4883227;29;20033;-92
2021/01/23 06:39:56;;;;;;;14.43;8.77;;;4.40;81.30;;;;;;4885051;29;20037;-91
2021/01/23 06:42:22;;;;;;;12.40;8.57;;;4.50;81.50;;;;;;4885040;29;20056;-92
2021/01/23 06:44:48;;;;;;;13.55;8.13;;;4.40;81.40;;;;;;4869101;29;20037;-92
2021/01/23 06:47:14;;;;;;;11.27;8.20;;;4.40;81.30;;;;;;4884622;29;20072;-93
2021/01/23 06:49:41;;;;;;;12.32;8.80;;;4.40;81.30;;;;;;4884102;29;20037;-92
2021/01/23 06:52:07;;;;;;;15.50;9.18;;;4.50;81.30;;;;;;4868551;29;20055;-87
2021/01/23 06:54:34;;;;;;;12.63;8.40;;;4.40;81.50;;;;;;4883256;29;20053;-86
2021/01/23 06:57:02;;;;;;;12.10;7.78;;;4.40;81.40;;;;;;4914058;29;20044;-86
2021/01/23 06:59:28;;;;;;;11.25;7.90;;;4.40;81.40;;;;;;4886699;29;20041;-87
2021/01/23 07:01:59;;;;;;;13.35;8.75;;;4.40;81.30;;;;;;4920398;29;20087;-87
2021/01/23 07:04:29;;;;;;;14.35;8.07;;;4.40;81.50;;;;;;4920864;29;20036;-87
2021/01/23 07:06:56;;;;;;;12.18;8.23;;;4.40;81.40;;;;;;4905651;29;20139;-89
2021/01/23 07:09:45;;;;;;;13.95;9.30;;;4.50;81.50;;;;;;4905500;29;20130;-88
2021/01/23 07:12:13;;;;;;;13.75;8.70;;;4.50;82.10;;;;;;4921115;29;20130;-89
2021/01/23 07:14:39;;;;;;;13.38;9.13;;;4.50;82.00;;;;;;4904949;29;20048;-89
2021/01/23 07:17:13;;;;;;;14.68;7.80;;;4.50;82.10;;;;;;4904665;29;20052;-89
2021/01/23 07:19:39;;;;;;;13.00;8.07;;;4.50;82.10;;;;;;4920569;29;20038;-89
2021/01/23 07:22:05;;;;;;;11.10;7.43;;;4.50;81.80;;;;;;4904840;29;20039;-89
2021/01/23 07:24:32;;;;;;;9.95;7.05;;;4.50;81.70;;;;;;4904832;29;20044;-89
2021/01/23 07:26:59;;;;;;;11.52;7.72;;;4.60;81.70;;;;;;4920383;29;20031;-89
2021/01/23 07:29:24;;;;;;;10.50;7.32;;;4.60;81.90;;;;;;4905125;29;20048;-90
2021/01/23 07:31:54;;;;;;;13.15;7.63;;;4.60;81.70;;;;;;4920593;29;20497;-89
2021/01/23 07:34:20;;;;;;;11.52;7.88;;;4.60;81.70;;;;;;4937617;29;20042;-90
2021/01/23 07:36:46;;;;;;;10.63;7.72;;;4.60;81.60;;;;;;4904534;29;20044;-89
2021/01/23 07:39:15;;;;;;;11.60;7.78;;;4.60;81.60;;;;;;4889325;29;20510;-89
2021/01/23 07:41:47;;;;;;;12.85;8.00;;;4.60;82.20;;;;;;4904315;29;20036;-88
2021/01/23 07:44:14;;;;;;;11.90;7.35;;;4.60;81.60;;;;;;4920593;29;20478;-89
2021/01/23 07:46:44;;;;;;;11.07;7.72;;;4.60;81.50;;;;;;4889397;29;20472;-89
2021/01/23 07:49:27;;;;;;;12.15;8.02;;;4.60;81.40;;;;;;4919258;29;20040;-89
2021/01/23 07:52:06;;;;;;;13.80;8.30;;;4.60;81.30;;;;;;4896306;29;20047;-89
2021/01/23 07:54:32;;;;;;;12.00;7.90;;;4.60;81.40;;;;;;4892728;29;20044;-90
2021/01/23 07:56:58;;;;;;;11.40;8.10;;;4.60;81.30;;;;;;4898735;29;20063;-86
2021/01/23 07:59:50;;;;;;;11.95;8.18;;;4.60;81.30;;;;;;4886298;29;20043;-87
2021/01/23 08:02:16;;;;;;;12.63;8.70;;;4.60;81.40;;;;;;4886646;29;20032;-87
2021/01/23 08:04:53;;;;;;;13.55;9.52;;;4.60;81.40;;;;;;4918206;29;20122;-87
2021/01/23 08:07:24;;;;;;;14.02;10.15;;;4.60;81.80;;;;;;4918025;29;20040;-86
2021/01/23 08:10:06;;;;;;;12.27;8.20;;;4.60;81.70;;;;;;4908119;29;20040;-86
2021/01/23 08:12:32;;;;;;;14.40;9.45;;;4.70;81.70;;;;;;4901065;29;20047;-88
2021/01/23 08:14:58;;;;;;;12.02;8.98;;;4.70;81.80;;;;;;4917789;29;20432;-88
2021/01/23 08:17:35;;;;;;;12.43;9.07;;;4.70;81.80;;;;;;4888650;29;20134;-88
2021/01/23 08:20:01;;;;;;;13.98;8.82;;;4.70;81.80;;;;;;4920165;29;20054;-87
2021/01/23 08:22:27;;;;;;;15.75;9.88;;;4.70;81.70;;;;;;4912556;29;20477;-87
2021/01/23 08:24:52;;;;;;;13.43;9.55;;;4.70;81.70;;;;;;4920689;29;20098;-88
2021/01/23 08:27:20;;;;;;;13.20;8.82;;;4.70;81.60;;;;;;4904921;29;20094;-88
2021/01/23 08:29:50;;;;;;;11.77;8.88;;;4.80;81.70;;;;;;4905240;29;20042;-87
2021/01/23 08:32:17;;;;;;;14.73;9.02;;;4.80;81.80;;;;;;4904939;29;20164;-87
2021/01/23 08:34:44;;;;;;;15.23;10.27;;;4.80;81.90;;;;;;4920415;29;20043;-86
2021/01/23 08:37:10;;;;;;;11.95;8.05;;;4.80;82.10;;;;;;4919987;29;20047;-87
2021/01/23 08:39:45;;;;;;;12.48;8.95;;;4.80;82.10;;;;;;4920301;29;20027;-87
2021/01/23 08:42:11;;;;;;;12.38;8.63;;;4.80;82.00;;;;;;4936863;29;20056;-90
2021/01/23 08:44:38;;;;;;;12.20;7.88;;;4.80;81.80;;;;;;4904955;29;20450;-89
2021/01/23 08:47:04;;;;;;;12.23;7.18;;;4.80;81.80;;;;;;4888788;29;20063;-89
2021/01/23 08:49:30;;;;;;;12.77;7.72;;;4.90;81.70;;;;;;4920358;29;20090;-89
2021/01/23 08:51:56;;;;;;;9.95;7.03;;;4.80;81.60;;;;;;4919973;29;20074;-88
2021/01/23 08:54:22;;;;;;;11.95;6.50;;;4.90;81.60;;;;;;4904013;29;20052;-87
2021/01/23 08:56:48;;;;;;;12.77;7.90;;;4.90;81.70;;;;;;4904119;29;20059;-86
2021/01/23 08:59:14;;;;;;;10.38;7.13;;;4.90;81.80;;;;;;4919417;29;20059;-87
2021/01/23 09:01:40;;;;;;;12.73;7.70;;;4.90;82.00;;;;;;4904166;29;20036;-87
2021/01/23 09:04:05;;;;;;;10.68;7.45;;;4.90;82.80;;;;;;4903851;29;20122;-87
2021/01/23 09:06:31;;;;;;;11.57;7.82;;;4.90;82.20;;;;;;4887862;29;20721;-87
2021/01/23 09:08:57;;;;;;;11.18;7.43;;;4.90;82.20;;;;;;4890864;29;20075;-86
2021/01/23 09:11:22;;;;;;;9.52;7.20;;;5.00;82.30;;;;;;4900908;29;20491;-87
2021/01/23 09:13:48;;;;;;;11.40;7.15;;;5.00;82.30;;;;;;4914181;29;20103;-87
2021/01/23 09:16:14;;;;;;;11.18;6.97;;;5.00;82.20;;;;;;4885048;29;20119;-87
2021/01/23 09:18:39;;;;;;;12.57;7.30;;;5.00;82.20;;;;;;4902267;29;20054;-87
2021/01/23 09:21:06;;;;;;;9.23;6.45;;;5.00;82.20;;;;;;4913830;29;20032;-87
2021/01/23 09:23:32;;;;;;;10.38;6.85;;;5.10;82.20;;;;;;4911357;29;20107;-87
2021/01/23 09:26:02;;;;;;;9.10;6.40;;;5.10;82.30;;;;;;4901129;29;20180;-87
2021/01/23 09:28:28;;;;;;;9.30;6.22;;;5.10;82.10;;;;;;4898010;29;20069;-86
2021/01/23 09:30:54;;;;;;;10.95;6.60;;;5.10;82.00;;;;;;4893577;29;20131;-87
2021/01/23 09:33:19;;;;;;;8.15;6.30;;;5.10;82.00;;;;;;4909295;29;20167;-87
2021/01/23 09:35:45;;;;;;;10.60;5.85;;;5.20;82.00;;;;;;4910549;29;20043;-87
2021/01/23 09:38:11;;;;;;;9.20;5.80;;;5.20;81.90;;;;;;4892440;29;20131;-87
2021/01/23 09:40:36;;;;;;;10.13;5.55;;;5.20;81.90;;;;;;4909928;29;20027;-87
2021/01/23 09:43:02;;;;;;;10.65;5.90;;;5.20;82.00;;;;;;4909529;29;20041;-86
2021/01/23 09:45:28;;;;;;;8.95;5.45;;;5.20;81.90;;;;;;4908349;29;20028;-86
2021/01/23 09:47:54;;;;;;;6.72;4.95;;;5.30;81.80;;;;;;4900898;29;20047;-86
2021/01/23 09:50:21;;;;;;;9.07;5.40;;;5.30;81.60;;;;;;4909342;29;20031;-87
2021/01/23 09:52:48;;;;;;;8.25;5.35;;;5.30;81.50;;;;;;4895870;29;20513;-87
2021/01/23 09:55:14;;;;;;;8.77;5.25;;;5.40;81.60;;;;;;4928651;29;20052;-87
2021/01/23 09:57:39;;;;;;;11.77;5.75;;;5.30;81.50;;;;;;4909741;29;20550;-87
2021/01/23 10:00:06;;;;;;;14.27;5.65;;;5.40;81.80;;;;;;4889613;29;20394;-87
2021/01/23 10:02:35;;;;;;;11.80;5.90;;;5.40;81.70;;;;;;4917215;29;20478;-87
2021/01/23 10:05:04;;;;;;;;;;;5.40;81.60;;;;;;4900900;29;20036;-87
2021/01/23 10:07:30;;;;;;;10.48;5.65;;;5.40;81.60;;;;;;4916270;29;20375;-87
2021/01/23 10:09:56;;;;;;;10.55;6.07;;;5.40;81.50;;;;;;4900445;29;20040;-87
2021/01/23 10:12:21;;;;;;;11.00;5.80;;;5.50;81.60;;;;;;4917234;29;20033;-87
2021/01/23 10:14:47;;;;;;;10.23;6.38;;;5.50;82.40;;;;;;4904280;29;20138;-87
2021/01/23 10:17:14;;;;;;;12.07;5.80;;;5.50;82.10;;;;;;4896244;29;20040;-87
2021/01/23 10:19:40;;;;;;;9.35;5.28;;;5.50;82.00;;;;;;4898979;29;20042;-87
2021/01/23 10:22:06;;;;;;;7.80;5.25;;;5.60;82.30;;;;;;4898991;29;20118;-87
2021/01/23 10:24:31;;;;;;;10.10;5.30;;;5.60;82.40;;;;;;4897240;29;20067;-87
2021/01/23 10:26:57;;;;;;;10.65;5.10;;;5.70;82.30;;;;;;4902064;29;20075;-87
2021/01/23 10:29:23;;;;;;;7.43;4.63;;;5.70;82.10;;;;;;4906701;29;20040;-87
2021/01/23 10:31:49;;;;;;;8.05;5.13;;;5.70;82.00;;;;;;4905833;29;20052;-87
2021/01/23 10:34:15;;;;;;;8.77;5.13;;;5.80;81.90;;;;;;4896657;29;20511;-87
2021/01/23 10:36:41;;;;;;;8.35;5.15;;;5.80;81.90;;;;;;4883191;29;20042;-87
2021/01/23 10:39:07;;;;;;;7.95;5.22;;;5.80;82.00;;;;;;4926489;23;20528;-89
2021/01/23 10:41:33;;;;;;;10.23;5.10;;;5.90;81.90;;;;;;4906383;29;20067;-90
2021/01/23 10:43:58;;;;;;;6.60;4.70;;;6.00;81.90;;;;;;4914543;29;20036;-88
2021/01/23 10:46:24;;;;;;;8.32;4.80;;;6.00;81.80;;;;;;4906796;29;20044;-91
2021/01/23 10:48:49;;;;;;;12.65;4.82;;;6.10;81.70;;;;;;4906081;29;20036;-89
2021/01/23 10:51:15;;;;;;;8.77;4.90;;;6.20;81.90;;;;;;4887647;29;20036;-89
2021/01/23 10:53:41;;;;;;;8.35;4.53;;;6.20;81.70;;;;;;4903492;29;20099;-89
2021/01/23 10:56:07;;;;;;;8.10;4.25;;;6.30;81.50;;;;;;4904393;29;20505;-89
2021/01/23 10:58:33;;;;;;;6.25;4.00;;;6.40;81.30;;;;;;4874132;29;20050;-90
2021/01/23 11:00:59;;;;;;;6.70;3.53;;;6.50;81.10;;;;;;4910664;29;20477;-89
2021/01/23 11:03:24;;;;;;;7.03;3.80;;;6.50;80.90;;;;;;4893392;29;20042;-89
2021/01/23 11:05:55;;;;;;;7.82;4.20;;;6.60;80.80;;;;;;4918912;29;20046;-90
2021/01/23 11:08:21;;;;;;;7.60;3.67;;;6.60;80.70;;;;;;4902415;29;20044;-88
2021/01/23 11:10:47;;;;;;;6.65;3.80;;;6.70;80.60;;;;;;4886645;29;20478;-90
2021/01/23 11:13:12;;;;;;;6.50;3.67;;;6.70;80.40;;;;;;4888831;29;20464;-90
2021/01/23 11:15:38;;;;;;;6.35;3.63;;;6.80;80.40;;;;;;4898676;29;20046;-88
2021/01/23 11:18:04;;;;;;;6.68;3.47;;;6.80;80.20;;;;;;4909656;29;20047;-90
2021/01/23 11:20:32;;;;;;;6.80;2.97;;;6.90;80.20;;;;;;4916944;29;20048;-90
2021/01/23 11:22:59;;;;;;;7.78;3.10;;;6.90;80.10;;;;;;4888646;29;20427;-90
2021/01/23 11:25:26;;;;;;;5.63;2.70;;;6.90;80.00;;;;;;4905525;29;20043;-91
2021/01/23 11:27:54;;;;;;;5.35;2.92;;;7.00;79.90;;;;;;4919750;29;20402;-89
2021/01/23 11:30:20;;;;;;;4.80;3.00;;;7.00;79.80;;;;;;4904048;29;20064;-89
2021/01/23 11:32:46;;;;;;;6.13;3.17;;;7.00;79.60;;;;;;4888818;29;20091;-90
2021/01/23 11:35:12;;;;;;;6.53;3.40;;;7.00;79.40;;;;;;4903990;29;20506;-90
2021/01/23 11:37:37;;;;;;;4.85;2.58;;;7.10;79.30;;;;;;4920183;29;20095;-90
2021/01/23 11:40:05;;;;;;;5.22;2.95;;;7.10;79.30;;;;;;4904427;29;20052;-89
2021/01/23 11:42:30;;;;;;;5.60;3.03;;;7.10;78.80;;;;;;4919468;29;20044;-91
2021/01/23 11:44:56;;;;;;;6.20;3.40;;;7.10;78.70;;;;;;4903887;29;20526;-91
2021/01/23 11:47:22;;;;;;;10.07;3.33;;;7.10;78.60;;;;;;4903405;29;20079;-90
2021/01/23 11:49:48;;;;;;;4.65;2.85;;;7.10;78.40;;;;;;4903758;29;20475;-90
2021/01/23 11:52:13;;;;;;;6.68;3.40;;;7.10;78.50;;;;;;4904169;29;20398;-89
2021/01/23 11:54:39;;;;;;;4.45;2.83;;;7.10;78.30;;;;;;4903599;29;20043;-91
2021/01/23 11:57:08;;;;;;;5.50;2.95;;;7.10;78.20;;;;;;4888145;29;20040;-90
2021/01/23 11:59:34;;;;;;;6.35;2.80;;;7.20;78.20;;;;;;4889454;29;20040;-91
2021/01/23 12:02:00;;;;;;;6.20;2.83;;;7.20;78.20;;;;;;4903630;29;20040;-90
2021/01/23 12:04:25;;;;;;;6.40;2.80;;;7.20;78.10;;;;;;4909698;29;20529;-90
2021/01/23 12:06:51;;;;;;;5.63;2.53;;;7.20;78.10;;;;;;4905901;29;20484;-90
2021/01/23 12:09:27;;;;;;;7.35;2.80;;;7.20;78.10;;;;;;4906461;29;20134;-90
2021/01/23 12:11:52;;;;;;;5.38;2.53;;;7.20;78.00;;;;;;4922441;29;20086;-89
2021/01/23 12:14:18;;;;;;;4.93;2.17;;;7.20;77.90;;;;;;4922172;29;20442;-89
2021/01/23 12:16:47;;;;;;;3.35;2.28;;;7.30;78.00;;;;;;4921801;29;20036;-89
2021/01/23 12:19:13;;;;;;;3.92;2.30;;;7.30;78.00;;;;;;4906154;29;20563;-89
2021/01/23 12:21:38;;;;;;;3.55;2.13;;;7.30;77.90;;;;;;4921835;29;20091;-90
2021/01/23 12:24:04;;;;;;;4.00;2.28;;;7.30;77.90;;;;;;4921845;29;20060;-86
2021/01/23 12:26:30;;;;;;;3.70;2.10;;;7.30;77.70;;;;;;4905956;29;20090;-88
2021/01/23 12:28:56;;;;;;;3.80;2.10;;;7.30;77.60;;;;;;4905468;29;20127;-89
2021/01/23 12:41:32;;;;;;;5.03;2.00;;;7.40;77.20;;;;;;4925251;29;20401;-91
2021/01/23 12:43:57;;;;;;;3.38;1.90;;;7.50;77.30;;;;;;4905538;29;20039;-92
2021/01/23 13:00:12;;;;;;;4.03;1.90;;;7.50;76.80;;;;;;4846786;29;20044;-90
2021/01/23 13:02:38;;;;;;;3.58;2.00;;;7.60;77.00;;;;;;4904564;29;20028;-90
2021/01/23 13:05:08;;;;;;;3.15;1.80;;;7.60;76.90;;;;;;4889883;29;20039;-90
2021/01/23 13:07:34;;;;;;;6.22;2.35;;;7.60;77.00;;;;;;4886280;29;20047;-90
2021/01/23 13:09:59;;;;;;;3.65;2.40;;;7.70;77.10;;;;;;4913225;29;20389;-90
2021/01/23 13:12:25;;;;;;;4.03;1.83;;;7.70;77.00;;;;;;4919687;29;20564;-90
2021/01/23 13:14:51;;;;;;;4.68;2.00;;;7.70;76.90;;;;;;4920054;29;20036;-90
2021/01/23 13:17:19;;;;;;;4.15;1.92;;;7.70;76.70;;;;;;4920303;29;20039;-90
2021/01/23 13:19:45;;;;;;;3.17;2.00;;;7.80;76.70;;;;;;4920335;29;20039;-90
2021/01/23 13:22:10;;;;;;;5.28;2.13;;;7.80;76.70;;;;;;4920079;29;20035;-90
2021/01/23 13:24:38;;;;;;;3.83;2.22;;;7.80;76.70;;;;;;4919757;29;20055;-90
2021/01/23 13:27:05;;;;;;;5.68;2.20;;;7.80;76.60;;;;;;4904235;29;20450;-90
2021/01/23 13:29:30;;;;;;;3.45;2.05;;;7.90;76.50;;;;;;4919573;29;20490;-91
2021/01/23 13:31:56;;;;;;;6.55;2.45;;;7.90;76.20;;;;;;4903350;29;20055;-88
2021/01/23 13:34:22;;;;;;;3.83;2.13;;;7.90;76.20;;;;;;4888799;29;20044;-90
2021/01/23 13:36:48;;;;;;;5.40;2.30;;;7.90;76.20;;;;;;4918468;29;20035;-88
2021/01/23 13:39:16;;;;;;;6.10;2.67;;;7.90;76.10;;;;;;4918779;29;20126;-89
2021/01/23 13:41:42;;;;;;;6.33;2.73;;;7.90;76.20;;;;;;4885958;29;20079;-90
2021/01/23 13:44:07;;;;;;;5.50;2.40;;;8.00;76.20;;;;;;4904804;29;20264;-91
2021/01/23 13:46:34;;;;;;;3.85;2.20;;;8.00;76.10;;;;;;4904216;29;20043;-91
2021/01/23 13:49:00;;;;;;;5.40;2.50;;;8.00;76.00;;;;;;4937051;29;20047;-92
2021/01/23 13:51:25;;;;;;;3.53;2.10;;;8.10;76.00;;;;;;4921374;29;20470;-91
2021/01/23 13:53:51;;;;;;;3.63;2.00;;;8.00;75.90;;;;;;4920090;29;20027;-91
2021/01/23 13:56:17;;;;;;;4.15;2.22;;;8.10;75.90;;;;;;4920355;29;20091;-91
2021/01/23 13:58:43;;;;;;;3.50;1.90;;;8.10;75.80;;;;;;4921163;29;20044;-92
2021/01/23 14:01:08;;;;;;;6.20;2.08;;;8.10;75.80;;;;;;4921027;29;20060;-91
2021/01/23 14:03:34;;;;;;;3.83;2.10;;;8.10;75.90;;;;;;4904697;29;20063;-92
2021/01/23 14:06:00;;;;;;;4.47;2.30;;;8.20;75.90;;;;;;4920502;29;20035;-92
2021/01/23 14:08:26;;;;;;;5.50;3.03;;;8.20;76.00;;;;;;4920874;29;20091;-92
2021/01/23 14:10:52;;;;;;;6.00;3.50;;;8.20;76.00;;;;;;4936909;29;20438;-91
2021/01/23 14:13:18;;;;;;;9.65;4.38;;;8.20;75.90;;;;;;4921097;29;20055;-92
2021/01/23 14:15:44;;;;;;;7.13;4.25;;;8.20;75.70;;;;;;4905322;29;20051;-92
2021/01/23 14:18:09;;;;;;;8.70;3.65;;;8.20;75.70;;;;;;4920745;29;20043;-92
2021/01/23 14:20:35;;;;;;;6.07;3.30;;;8.20;75.70;;;;;;4904796;29;20502;-91